Johnstonville, California
Current Conditions -  °F | °C
As of 9:55 AM on Friday 28 Nov 2014 (Local Time) from KAAT Reporting Station
Clear Clear  
Wind Chill: 42°   Ceiling: Unl
Heat Index: 47°   Visibility: 10mi
Dew Point: 29°   Wind: 10mph
Humidity: 50%   Direction: 280°W
Pressure: 29.91"   Gusts: NA
Location:  40.5172°N, 120.68°W
Report Text: KAAT 281755Z AUTO 28009KT 10SM CLR 08/M02 A2991 RMK AO2 SLP126 T00831017 10083 21044 55004
Loading
Personal Weather Stations






























Interactive Weather Map New forecast layout! Learn more

10-Day Weather Forecast

Advertisements
Track Severe Weather on mobile